Time;durP1;ratioP1;P1;durP2;ratioP2;P2;SDS_P1;SDS_P2;PMS_P1;PMS_P2;Temp;Humidity;BMP_temperature;BMP_pressure;BME280_temperature;BME280_humidity;BME280_pressure;Samples;Min_cycle;Max_cycle;Signal;HPM_P1;HPM_P2
2023/04/20 00:01:30;;;;;;;3.08;1.42;;;;;;;15.41;58.16;102234.31;5064460;28;20398;-53
2023/04/20 00:03:55;;;;;;;1.38;1.20;;;;;;;15.42;58.15;102232.50;5066184;28;20028;-54
2023/04/20 00:06:21;;;;;;;1.13;1.10;;;;;;;15.41;58.42;102233.47;5058976;28;20079;-53
2023/04/20 00:08:46;;;;;;;2.55;1.48;;;;;;;15.42;58.13;102229.81;5064743;28;20033;-53
2023/04/20 00:11:11;;;;;;;2.03;1.48;;;;;;;15.40;58.21;102224.56;5066164;28;20040;-53
2023/04/20 00:13:37;;;;;;;1.70;1.60;;;;;;;15.40;58.25;102221.88;5056079;28;20033;-54
2023/04/20 00:16:02;;;;;;;1.25;1.15;;;;;;;15.40;58.16;102219.19;5068029;28;20064;-54
2023/04/20 00:18:28;;;;;;;1.30;1.20;;;;;;;15.41;58.24;102220.03;5061798;28;20031;-52
2023/04/20 00:20:53;;;;;;;1.58;1.45;;;;;;;15.40;58.24;102212.94;5055509;28;20029;-53
2023/04/20 00:23:18;;;;;;;1.30;1.20;;;;;;;15.39;58.14;102204.03;5066590;28;20032;-54
2023/04/20 00:25:44;;;;;;;1.98;1.30;;;;;;;15.38;58.11;102199.63;5060843;28;20024;-51
2023/04/20 00:28:09;;;;;;;1.48;1.30;;;;;;;15.38;58.12;102199.63;5066399;28;20124;-54
2023/04/20 00:30:35;;;;;;;1.95;1.30;;;;;;;15.38;58.35;102196.94;5057661;28;20397;-54
2023/04/20 00:33:01;;;;;;;2.22;1.38;;;;;;;15.37;58.25;102186.31;5058153;28;20116;-53
2023/04/20 00:35:26;;;;;;;1.63;1.52;;;;;;;15.36;58.00;102185.44;5065984;28;20017;-53
2023/04/20 00:37:51;;;;;;;2.65;1.33;;;;;;;15.36;58.23;102185.44;5060075;28;20063;-53
2023/04/20 00:40:17;;;;;;;1.33;1.20;;;;;;;15.37;58.17;102175.56;5070103;28;20033;-52
2023/04/20 00:42:42;;;;;;;1.40;1.30;;;;;;;15.36;58.04;102181.88;5058591;28;20116;-53
2023/04/20 00:45:08;;;;;;;1.60;1.35;;;;;;;15.36;58.00;102172.00;5063765;28;20078;-53
2023/04/20 00:47:34;;;;;;;1.77;1.20;;;;;;;15.35;57.96;102177.50;5064930;28;20037;-53
2023/04/20 00:49:59;;;;;;;1.20;1.20;;;;;;;15.35;57.86;102161.41;5059247;28;20044;-53
2023/04/20 00:52:25;;;;;;;1.23;1.13;;;;;;;15.35;58.07;102161.41;5069040;28;20045;-53
2023/04/20 00:54:51;;;;;;;1.20;1.10;;;;;;;15.34;57.81;102154.28;5061500;28;20459;-53
2023/04/20 00:57:22;;;;;;;1.50;1.17;;;;;;;15.33;58.04;102153.44;5070939;28;20063;-52
2023/04/20 00:59:50;;;;;;;1.45;1.30;;;;;;;15.33;57.80;102148.06;5065725;28;20032;-54
2023/04/20 01:02:17;;;;;;;2.17;1.30;;;;;;;15.33;57.97;102139.16;5060984;28;20044;-53
2023/04/20 01:04:43;;;;;;;1.30;1.20;;;;;;;15.33;58.36;102136.47;5067483;28;20064;-53
2023/04/20 01:07:08;;;;;;;1.30;1.20;;;;;;;15.32;58.09;102129.38;5064778;28;20488;-53
2023/04/20 01:09:38;;;;;;;1.83;1.48;;;;;;;15.32;58.08;102130.22;5069985;28;20060;-53
2023/04/20 01:12:03;;;;;;;1.90;1.40;;;;;;;15.31;58.09;102122.31;5060343;28;20029;-53
2023/04/20 01:14:29;;;;;;;1.45;1.33;;;;;;;15.31;57.98;102123.16;5064778;28;20013;-54
2023/04/20 01:16:54;;;;;;;2.58;1.17;;;;;;;15.32;57.96;102118.63;5049159;28;20033;-53
2023/04/20 01:19:20;;;;;;;4.03;1.33;;;;;;;15.32;57.68;102121.31;5063488;28;20107;-54
2023/04/20 01:21:46;;;;;;;1.30;1.17;;;;;;;15.31;57.83;102111.56;5064838;28;20040;-53
2023/04/20 01:24:12;;;;;;;1.40;1.30;;;;;;;15.30;57.90;102107.13;5063912;28;20029;-52
2023/04/20 01:26:37;;;;;;;2.10;1.50;;;;;;;15.30;57.83;102104.47;5067426;28;20501;-53
2023/04/20 01:29:03;;;;;;;1.80;1.10;;;;;;;15.30;57.87;102102.63;5068053;28;20040;-53
2023/04/20 01:31:28;;;;;;;1.33;1.20;;;;;;;15.29;57.67;102090.19;5061270;28;20115;-53
2023/04/20 01:33:53;;;;;;;1.30;1.20;;;;;;;15.28;58.06;102090.28;5058957;28;20033;-54
2023/04/20 01:36:19;;;;;;;1.45;1.30;;;;;;;15.29;57.80;102092.00;5063675;28;20044;-54
2023/04/20 01:38:44;;;;;;;1.40;1.30;;;;;;;15.28;57.31;102090.28;5063777;28;20028;-54
2023/04/20 01:41:10;;;;;;;1.65;1.20;;;;;;;15.29;57.53;102089.31;5066176;28;20111;-54
2023/04/20 01:43:37;;;;;;;2.47;1.50;;;;;;;15.27;57.39;102088.53;5067544;28;20020;-54
2023/04/20 01:46:02;;;;;;;1.45;1.30;;;;;;;15.26;57.61;102085.00;5064288;28;20480;-53
2023/04/20 01:48:28;;;;;;;1.80;1.30;;;;;;;15.27;57.49;102072.44;5066622;28;20064;-53
2023/04/20 01:50:54;;;;;;;1.92;1.30;;;;;;;15.25;57.66;102078.78;5066379;28;20043;-53
2023/04/20 01:53:19;;;;;;;1.60;1.23;;;;;;;15.26;57.16;102071.59;5060722;28;20097;-54
2023/04/20 01:55:45;;;;;;;1.27;1.10;;;;;;;15.25;57.62;102059.16;5063059;28;20083;-53
2023/04/20 01:58:10;;;;;;;1.65;1.25;;;;;;;15.24;57.39;102063.63;5062971;28;20490;-53
2023/04/20 02:00:36;;;;;;;1.33;1.25;;;;;;;15.25;57.29;102067.19;5063778;28;20115;-54
2023/04/20 02:03:02;;;;;;;2.00;1.40;;;;;;;15.25;57.32;102056.47;5067685;28;20438;-53
2023/04/20 02:05:27;;;;;;;1.25;1.00;;;;;;;15.25;57.68;102059.16;5066469;28;20104;-53
2023/04/20 02:07:52;;;;;;;1.15;1.05;;;;;;;15.23;57.52;102059.25;5065287;28;20395;-54
2023/04/20 02:10:18;;;;;;;2.60;1.08;;;;;;;15.23;57.21;102056.56;5065693;28;20060;-53
2023/04/20 02:12:43;;;;;;;1.30;1.20;;;;;;;15.23;57.31;102051.19;5062479;28;20107;-54
2023/04/20 02:15:09;;;;;;;1.27;1.17;;;;;;;15.22;57.06;102045.91;5059429;28;20119;-53
2023/04/20 02:17:37;;;;;;;1.30;1.20;;;;;;;15.22;56.88;102053.97;5066014;28;20025;-53
2023/04/20 02:20:10;;;;;;;1.30;1.20;;;;;;;15.22;57.34;102045.91;5063901;28;20059;-53
2023/04/20 02:22:36;;;;;;;1.45;1.35;;;;;;;15.22;56.99;102040.56;5062979;28;20028;-54
2023/04/20 02:25:03;;;;;;;1.23;1.13;;;;;;;15.21;57.36;102034.34;5070123;28;20029;-53
2023/04/20 02:27:30;;;;;;;1.65;1.55;;;;;;;15.21;57.20;102028.09;5061427;28;20040;-51
2023/04/20 02:29:55;;;;;;;2.58;1.23;;;;;;;15.20;57.12;102023.69;5066073;28;20119;-53
2023/04/20 02:32:20;;;;;;;1.83;1.20;;;;;;;15.20;57.28;102029.06;5061178;28;20527;-52
2023/04/20 02:34:46;;;;;;;1.40;1.30;;;;;;;15.20;57.31;102023.69;5064481;28;20390;-53
2023/04/20 02:37:11;;;;;;;1.25;1.15;;;;;;;15.19;56.78;102022.84;5064291;28;20487;-53
2023/04/20 02:39:36;;;;;;;2.50;1.30;;;;;;;15.19;57.03;102025.53;5042004;28;20102;-53
2023/04/20 02:42:02;;;;;;;1.00;0.98;;;;;;;15.20;56.69;102023.69;5064831;28;20025;-53
2023/04/20 02:44:27;;;;;;;1.40;1.30;;;;;;;15.19;56.77;102016.59;5062558;28;20178;-53
2023/04/20 02:46:53;;;;;;;1.20;1.20;;;;;;;15.18;56.78;102013.06;5061720;28;20044;-53
2023/04/20 02:49:18;;;;;;;1.30;1.20;;;;;;;15.18;56.84;102013.06;5063527;28;20094;-53
2023/04/20 02:51:43;;;;;;;2.67;1.38;;;;;;;15.18;56.81;102013.06;5067067;28;20044;-53
2023/04/20 02:54:09;;;;;;;1.35;1.25;;;;;;;15.17;56.69;102003.31;5064445;28;20025;-54
2023/04/20 02:56:34;;;;;;;1.52;1.42;;;;;;;15.17;56.84;102007.78;5059573;28;20074;-54
2023/04/20 02:59:00;;;;;;;1.92;1.27;;;;;;;15.16;56.74;102003.41;5043816;28;20034;-54
2023/04/20 03:01:25;;;;;;;1.25;1.15;;;;;;;15.17;56.90;102008.66;5061982;28;20079;-53
2023/04/20 03:03:51;;;;;;;1.50;1.23;;;;;;;15.16;57.18;102006.94;5066436;28;20048;-53
2023/04/20 03:06:16;;;;;;;1.50;1.27;;;;;;;15.18;56.98;102005.00;5069043;28;20119;-52
2023/04/20 03:08:42;;;;;;;1.13;1.02;;;;;;;15.17;56.96;101997.06;5061883;28;20043;-52
2023/04/20 03:11:07;;;;;;;1.40;1.30;;;;;;;15.15;56.68;101999.84;5058767;28;20037;-53
2023/04/20 03:13:33;;;;;;;1.40;1.30;;;;;;;15.14;56.54;101992.75;5061820;28;20386;-53
2023/04/20 03:15:58;;;;;;;1.45;1.30;;;;;;;15.14;56.89;101992.75;5064629;28;20496;-54
2023/04/20 03:18:23;;;;;;;2.10;1.70;;;;;;;15.14;56.65;101984.72;5060625;28;20157;-54
2023/04/20 03:20:49;;;;;;;1.38;1.05;;;;;;;15.14;56.93;101983.88;5063103;28;20060;-53
2023/04/20 03:23:14;;;;;;;1.85;1.35;;;;;;;15.13;56.47;101977.63;5059630;28;20040;-52
2023/04/20 03:25:39;;;;;;;1.40;1.30;;;;;;;15.11;56.34;101971.50;5060660;28;20024;-53
2023/04/20 03:28:05;;;;;;;1.20;1.10;;;;;;;15.12;56.59;101978.59;5063913;28;20032;-52
2023/04/20 03:30:30;;;;;;;1.40;1.30;;;;;;;15.11;56.70;101976.84;5061403;28;20466;-54
2023/04/20 03:32:55;;;;;;;1.27;1.17;;;;;;;15.11;56.76;101976.84;5065323;28;20393;-52
2023/04/20 03:35:21;;;;;;;1.65;1.30;;;;;;;15.11;56.97;101979.53;5061460;28;20104;-53
2023/04/20 03:37:46;;;;;;;1.85;1.30;;;;;;;15.11;56.71;101978.69;5062230;28;20146;-53
2023/04/20 03:40:12;;;;;;;1.50;1.35;;;;;;;15.10;56.69;101969.78;5062325;28;20036;-53
2023/04/20 03:42:37;;;;;;;2.20;1.17;;;;;;;15.10;56.30;101966.22;5062590;28;20265;-53
2023/04/20 03:45:05;;;;;;;1.95;1.40;;;;;;;15.11;56.24;101962.59;5065153;28;20107;-53
2023/04/20 03:47:30;;;;;;;2.65;1.60;;;;;;;15.08;56.55;101952.94;5061014;28;20053;-53
2023/04/20 03:49:55;;;;;;;1.20;1.10;;;;;;;15.09;56.63;101962.69;5057298;28;20052;-54
2023/04/20 03:52:21;;;;;;;1.48;1.30;;;;;;;15.08;56.37;101960.97;5062159;28;20077;-53
2023/04/20 03:54:46;;;;;;;1.63;1.38;;;;;;;15.08;56.23;101954.72;5063502;28;20040;-53
2023/04/20 03:57:12;;;;;;;1.38;1.27;;;;;;;15.08;56.59;101952.06;5068654;28;20726;-53
2023/04/20 03:59:37;;;;;;;2.65;1.30;;;;;;;15.07;56.18;101951.19;5063690;28;20032;-53
2023/04/20 04:02:04;;;;;;;1.50;1.40;;;;;;;15.06;56.64;101946.81;5058105;28;20064;-53
2023/04/20 04:04:30;;;;;;;0.98;0.90;;;;;;;15.06;56.85;101949.50;5058882;28;20155;-53
2023/04/20 04:06:55;;;;;;;1.40;1.20;;;;;;;15.07;56.64;101944.97;5044281;28;20079;-53
2023/04/20 04:09:21;;;;;;;1.92;1.23;;;;;;;15.05;56.46;101940.56;5063564;28;20434;-53
2023/04/20 04:11:46;;;;;;;1.23;1.13;;;;;;;15.07;56.65;101942.28;5064396;28;20035;-53
2023/04/20 04:14:12;;;;;;;1.50;1.33;;;;;;;15.05;56.52;101934.34;5064412;28;20066;-53
2023/04/20 04:16:37;;;;;;;1.20;1.10;;;;;;;15.04;56.24;101941.53;5061146;28;20047;-53
2023/04/20 04:19:03;;;;;;;1.27;1.17;;;;;;;15.05;56.34;101937.03;5062754;28;20379;-54
2023/04/20 04:21:28;;;;;;;1.77;1.60;;;;;;;15.04;56.34;101932.59;5064644;28;20040;-53
2023/04/20 04:23:53;;;;;;;1.55;1.38;;;;;;;15.04;56.18;101924.56;5067685;28;20032;-53
2023/04/20 04:26:23;;;;;;;1.15;1.10;;;;;;;15.03;56.38;101925.53;5062712;28;20036;-53
2023/04/20 04:28:52;;;;;;;2.20;1.33;;;;;;;15.03;56.52;101912.13;5068726;28;20061;-54
2023/04/20 04:31:20;;;;;;;1.33;1.23;;;;;;;15.02;56.60;101913.06;5062852;28;20043;-53
2023/04/20 04:33:46;;;;;;;2.08;1.30;;;;;;;15.02;56.39;101907.72;5068757;28;20394;-54
2023/04/20 04:36:14;;;;;;;1.90;1.50;;;;;;;15.02;56.33;101897.88;5064116;28;20036;-54
2023/04/20 04:38:41;;;;;;;1.30;1.20;;;;;;;15.02;56.39;101902.34;5058829;28;20148;-53
2023/04/20 04:41:06;;;;;;;1.98;1.52;;;;;;;15.00;56.65;101899.78;5067573;28;20028;-54
2023/04/20 04:43:32;;;;;;;1.05;0.98;;;;;;;15.01;56.16;101895.28;5064180;28;20029;-53
2023/04/20 04:45:58;;;;;;;1.20;1.10;;;;;;;15.01;56.29;101892.59;5071570;28;20470;-54
2023/04/20 04:48:23;;;;;;;2.08;1.40;;;;;;;15.00;56.03;101889.06;5063816;28;20134;-53
2023/04/20 04:50:49;;;;;;;1.15;0.93;;;;;;;15.00;56.42;101893.53;5058817;28;20037;-53
2023/04/20 04:53:14;;;;;;;1.33;1.23;;;;;;;15.00;56.56;101890.88;5065463;28;20052;-53
2023/04/20 04:55:40;;;;;;;1.60;1.40;;;;;;;15.00;56.57;101882.81;5068512;28;20087;-52
2023/04/20 04:58:06;;;;;;;1.52;1.23;;;;;;;14.99;56.44;101881.13;5065956;28;20025;-53
2023/04/20 05:00:31;;;;;;;1.50;1.40;;;;;;;14.99;56.29;101884.66;5060578;28;20515;-53
2023/04/20 05:02:56;;;;;;;1.00;1.00;;;;;;;14.99;56.33;101881.97;5059273;28;20040;-53
2023/04/20 05:05:22;;;;;;;1.08;1.00;;;;;;;14.99;56.73;101891.84;5060270;28;20032;-53
2023/04/20 05:07:47;;;;;;;1.45;1.30;;;;;;;14.98;56.20;101890.09;5058962;28;20457;-52
2023/04/20 05:10:13;;;;;;;2.78;1.30;;;;;;;14.98;56.54;101885.63;5063135;28;20040;-52
2023/04/20 05:12:38;;;;;;;1.73;1.38;;;;;;;14.98;56.38;101885.63;5057829;28;20090;-53
2023/04/20 05:15:05;;;;;;;1.33;1.10;;;;;;;14.98;56.30;101874.00;5063835;28;20035;-51
2023/04/20 05:17:30;;;;;;;1.27;1.17;;;;;;;14.98;56.50;101882.06;5064061;28;20104;-53
2023/04/20 05:19:56;;;;;;;2.20;1.20;;;;;;;14.98;56.54;101879.38;5061250;28;20449;-53
2023/04/20 05:22:21;;;;;;;2.03;1.23;;;;;;;14.97;56.37;101872.31;5066976;28;20120;-53
2023/04/20 05:24:46;;;;;;;1.30;1.20;;;;;;;14.96;56.45;101876.78;5067560;28;20432;-53
2023/04/20 05:27:12;;;;;;;1.20;1.10;;;;;;;14.98;56.84;101880.25;5065540;28;20033;-53
2023/04/20 05:29:37;;;;;;;1.60;1.20;;;;;;;14.97;56.59;101881.22;5071272;28;20032;-54
2023/04/20 05:32:03;;;;;;;1.20;1.10;;;;;;;14.96;56.50;101876.78;5063294;28;20029;-53
2023/04/20 05:34:28;;;;;;;1.33;1.23;;;;;;;14.97;56.68;101875.00;5071721;28;20020;-53
2023/04/20 05:36:55;;;;;;;1.15;1.05;;;;;;;14.96;56.71;101884.84;5059775;28;20037;-53
2023/04/20 05:39:21;;;;;;;1.38;1.17;;;;;;;14.96;56.53;101879.47;5058390;28;20029;-53
2023/04/20 05:41:47;;;;;;;1.35;1.25;;;;;;;14.96;56.65;101873.25;5064514;28;20025;-53
2023/04/20 05:44:12;;;;;;;1.23;1.13;;;;;;;14.95;56.60;101877.78;5062081;28;20040;-53
2023/04/20 05:46:37;;;;;;;1.30;1.20;;;;;;;14.95;56.89;101869.72;5059358;28;20044;-53
2023/04/20 05:49:03;;;;;;;1.52;1.30;;;;;;;14.96;56.83;101870.56;5060676;28;20478;-52
2023/04/20 05:51:32;;;;;;;1.98;1.42;;;;;;;14.95;56.51;101869.72;5064897;28;20049;-54
2023/04/20 05:53:59;;;;;;;1.27;1.17;;;;;;;14.95;56.73;101868.88;5048249;28;20075;-57
2023/04/20 05:56:24;;;;;;;2.22;1.30;;;;;;;14.95;56.97;101866.19;5062950;28;20025;-53
2023/04/20 05:58:50;;;;;;;1.08;0.90;;;;;;;14.95;56.65;101876.91;5065000;28;20028;-53
2023/04/20 06:01:16;;;;;;;1.33;1.23;;;;;;;14.95;56.58;101868.88;5063015;28;20024;-53
2023/04/20 06:03:41;;;;;;;1.35;1.20;;;;;;;14.94;56.86;101870.69;5067137;28;20124;-53
2023/04/20 06:06:07;;;;;;;1.25;1.13;;;;;;;14.94;56.90;101868.00;5055531;28;20029;-53
2023/04/20 06:08:32;;;;;;;1.30;1.20;;;;;;;14.94;56.77;101867.13;5059906;28;20033;-54
2023/04/20 06:10:58;;;;;;;1.40;1.30;;;;;;;14.94;56.80;101864.47;5045707;28;20505;-53
2023/04/20 06:13:23;;;;;;;1.20;1.10;;;;;;;14.94;56.59;101867.13;5063930;28;20501;-53
2023/04/20 06:15:49;;;;;;;1.17;1.15;;;;;;;14.94;56.49;101864.47;5045974;28;20067;-54
2023/04/20 06:18:14;;;;;;;1.23;1.13;;;;;;;14.93;56.65;101862.75;5063290;28;20035;-53
2023/04/20 06:20:42;;;;;;;0.90;0.90;;;;;;;14.94;57.05;101856.41;5066182;28;20040;-54
2023/04/20 06:23:07;;;;;;;1.85;1.30;;;;;;;14.95;56.86;101867.03;5056643;28;20128;-54
2023/04/20 06:25:35;;;;;;;1.20;1.15;;;;;;;14.94;56.73;101861.78;5050296;28;20167;-54
2023/04/20 06:28:00;;;;;;;1.00;1.00;;;;;;;14.93;57.04;101858.25;5057490;28;20025;-53
2023/04/20 06:30:25;;;;;;;1.30;1.20;;;;;;;14.93;56.94;101850.19;5064639;28;20510;-52
2023/04/20 06:32:51;;;;;;;0.93;0.93;;;;;;;14.94;56.86;101859.09;5064711;28;20028;-53
2023/04/20 06:35:16;;;;;;;1.25;1.13;;;;;;;14.94;56.82;101851.06;5066902;28;20024;-53
2023/04/20 06:37:41;;;;;;;1.20;1.00;;;;;;;14.94;57.04;101843.00;5054632;28;20033;-53
2023/04/20 06:40:07;;;;;;;1.40;1.30;;;;;;;14.94;56.94;101851.06;5062182;28;20432;-53
2023/04/20 06:42:33;;;;;;;1.10;1.00;;;;;;;14.94;56.68;101843.00;5064994;28;20027;-53
2023/04/20 06:44:58;;;;;;;1.40;1.10;;;;;;;14.94;56.79;101837.63;5061238;28;20036;-53
2023/04/20 06:47:30;;;;;;;1.30;1.13;;;;;;;14.95;56.62;101844.75;5052985;28;20033;-53
2023/04/20 06:49:59;;;;;;;1.10;0.95;;;;;;;14.94;56.74;101843.00;5059709;28;20111;-53
2023/04/20 06:52:25;;;;;;;2.78;1.35;;;;;;;14.93;57.00;101850.19;5061170;28;20045;-53
2023/04/20 06:54:50;;;;;;;0.90;0.90;;;;;;;14.93;56.68;101849.34;5065987;28;20044;-53
2023/04/20 06:57:15;;;;;;;1.50;1.40;;;;;;;14.93;57.08;101849.34;5066669;28;20486;-53
2023/04/20 06:59:41;;;;;;;1.58;1.48;;;;;;;14.93;56.64;101835.94;5062068;28;20115;-53
2023/04/20 07:02:06;;;;;;;1.45;1.30;;;;;;;14.93;56.83;101831.44;5057745;28;20029;-53
2023/04/20 07:04:32;;;;;;;1.30;1.20;;;;;;;14.93;56.78;101843.97;5068013;28;20021;-54
2023/04/20 07:06:57;;;;;;;1.13;1.08;;;;;;;14.93;56.98;101830.56;5048314;28;20473;-53
2023/04/20 07:09:23;;;;;;;1.70;1.33;;;;;;;14.93;56.91;101835.94;5058461;28;20044;-52
2023/04/20 07:11:49;;;;;;;1.63;1.50;;;;;;;14.92;57.07;101829.69;5058680;28;20041;-50
2023/04/20 07:14:14;;;;;;;2.05;1.15;;;;;;;14.92;56.73;101848.47;5061758;28;20017;-51
2023/04/20 07:16:40;;;;;;;1.92;1.30;;;;;;;14.93;57.00;101844.84;5065025;28;20090;-53
2023/04/20 07:19:05;;;;;;;1.60;1.27;;;;;;;14.92;56.65;101836.88;5064929;28;20032;-53
2023/04/20 07:21:31;;;;;;;1.80;1.38;;;;;;;14.93;57.03;101843.97;5058755;28;20033;-53
2023/04/20 07:23:57;;;;;;;1.77;1.63;;;;;;;14.93;56.70;101833.25;5064270;28;20036;-52
2023/04/20 07:26:23;;;;;;;2.22;1.42;;;;;;;14.91;56.64;101846.75;5050294;28;20045;-52
2023/04/20 07:28:50;;;;;;;1.42;1.15;;;;;;;14.91;56.99;101851.25;5057571;28;20467;-53
2023/04/20 07:31:16;;;;;;;1.23;1.15;;;;;;;14.91;56.63;101837.84;5066432;28;20044;-51
2023/04/20 07:33:42;;;;;;;2.55;1.70;;;;;;;14.91;56.89;101845.88;5073279;28;20060;-52
2023/04/20 07:36:07;;;;;;;1.85;1.38;;;;;;;14.91;56.56;101837.84;5064368;28;20020;-53
2023/04/20 07:38:33;;;;;;;1.75;1.25;;;;;;;14.91;56.96;101845.88;5061966;28;20032;-51
2023/04/20 07:40:58;;;;;;;2.03;1.65;;;;;;;14.92;56.65;101844.94;5065549;28;20028;-53
2023/04/20 07:43:23;;;;;;;1.60;1.50;;;;;;;14.91;56.88;101837.84;5049756;28;20036;-53
2023/04/20 07:45:49;;;;;;;1.67;1.42;;;;;;;14.91;56.52;101835.16;5065307;28;20166;-53
2023/04/20 07:48:14;;;;;;;1.85;1.38;;;;;;;14.91;56.57;101830.66;5070328;28;20032;-52
2023/04/20 07:50:39;;;;;;;1.55;1.30;;;;;;;14.91;56.59;101833.34;5065179;28;20389;-53
2023/04/20 07:53:05;;;;;;;1.50;1.40;;;;;;;14.91;56.83;101837.84;5052232;28;20040;-53
2023/04/20 07:55:30;;;;;;;1.33;1.23;;;;;;;14.92;56.57;101844.94;5053638;28;20087;-53
2023/04/20 07:57:56;;;;;;;1.27;1.25;;;;;;;14.92;56.63;101836.88;5050072;28;20416;-53
2023/04/20 08:00:22;;;;;;;2.03;1.42;;;;;;;14.90;56.75;101828.94;5052515;28;20119;-51
2023/04/20 08:02:47;;;;;;;1.60;1.50;;;;;;;14.92;57.08;101844.94;5052049;28;20403;-53
2023/04/20 08:05:13;;;;;;;1.58;1.30;;;;;;;14.92;56.85;101828.84;5053772;28;20111;-53
2023/04/20 08:07:38;;;;;;;1.10;1.00;;;;;;;14.92;56.54;101820.78;5052277;28;20068;-53
2023/04/20 08:10:05;;;;;;;1.33;1.23;;;;;;;14.92;56.77;101831.53;5047087;28;20028;-52
2023/04/20 08:12:30;;;;;;;1.35;1.25;;;;;;;14.93;56.61;101825.22;5049769;28;20037;-53
2023/04/20 08:14:59;;;;;;;1.77;1.67;;;;;;;14.92;56.70;101828.84;5049595;28;20028;-53
2023/04/20 08:17:25;;;;;;;1.92;1.73;;;;;;;14.91;56.56;101819.94;5057712;28;20119;-52
2023/04/20 08:19:50;;;;;;;1.60;1.27;;;;;;;14.91;56.89;101822.63;5054390;28;20033;-52
2023/04/20 08:22:16;;;;;;;2.08;1.50;;;;;;;14.92;56.57;101823.47;5054895;28;20143;-53
2023/04/20 08:24:41;;;;;;;2.97;1.33;;;;;;;14.92;56.56;101815.44;5050687;28;20427;-53
2023/04/20 08:27:10;;;;;;;1.83;1.30;;;;;;;14.91;56.96;101816.38;5049321;28;20025;-52
2023/04/20 08:29:36;;;;;;;1.55;1.35;;;;;;;14.91;56.75;101806.53;5045181;28;20475;-53
2023/04/20 08:32:02;;;;;;;1.48;1.38;;;;;;;14.90;56.77;101818.22;5047489;28;20513;-52
2023/04/20 08:34:27;;;;;;;2.55;1.65;;;;;;;14.91;57.03;101809.22;5049605;28;20100;-52
2023/04/20 08:36:53;;;;;;;1.27;1.17;;;;;;;14.92;56.61;101799.34;5051009;28;20035;-53
2023/04/20 08:39:21;;;;;;;1.67;1.20;;;;;;;14.92;56.90;101802.03;5041761;28;20107;-53
2023/04/20 08:41:46;;;;;;;1.58;1.38;;;;;;;14.92;56.59;101804.72;5049606;28;20025;-53
2023/04/20 08:44:12;;;;;;;1.40;1.30;;;;;;;14.91;56.62;101808.34;5056143;28;20031;-52
2023/04/20 08:46:41;;;;;;;2.08;1.75;;;;;;;14.92;56.42;101805.56;5050136;28;20037;-53
2023/04/20 08:49:11;;;;;;;2.53;2.00;;;;;;;14.91;56.51;101802.97;5062939;28;20527;-53
2023/04/20 08:51:38;;;;;;;2.10;1.27;;;;;;;14.91;56.61;101798.50;5049257;28;20025;-51
2023/04/20 08:54:04;;;;;;;1.10;1.10;;;;;;;14.92;56.47;101799.34;5068175;28;20055;-53
2023/04/20 08:56:57;;;;;;;1.58;1.48;;;;;;;14.94;56.71;101792.06;5062897;28;20543;-53
2023/04/20 08:59:23;;;;;;;1.55;1.45;;;;;;;14.92;56.42;101793.97;5065989;28;20082;-53
2023/04/20 09:01:48;;;;;;;2.10;1.38;;;;;;;14.91;56.61;101790.44;5065444;28;20071;-53
2023/04/20 09:04:25;;;;;;;1.50;1.40;;;;;;;14.93;56.48;101782.31;5065638;28;20038;-53
2023/04/20 09:06:55;;;;;;;1.50;1.40;;;;;;;14.91;56.56;101787.75;5073497;28;20054;-53
2023/04/20 09:09:22;;;;;;;4.05;1.40;;;;;;;14.91;56.56;101787.75;5060667;28;20078;-52
2023/04/20 09:12:09;;;;;;;1.33;1.23;;;;;;;14.92;57.02;101791.28;5066385;28;20029;-52
2023/04/20 09:14:47;;;;;;;2.38;1.30;;;;;;;14.92;56.65;101784.09;5061554;28;20517;-53
2023/04/20 09:17:14;;;;;;;1.85;1.63;;;;;;;14.91;56.57;101789.56;5067893;28;20055;-53
2023/04/20 09:19:40;;;;;;;1.60;1.50;;;;;;;14.91;56.46;101789.56;5065272;28;20060;-52
2023/04/20 09:22:05;;;;;;;1.80;1.50;;;;;;;14.92;56.47;101788.63;5064810;28;20089;-53
2023/04/20 09:24:36;;;;;;;2.03;1.38;;;;;;;14.91;56.62;101787.75;5066437;28;20459;-51
2023/04/20 09:27:15;;;;;;;1.45;1.35;;;;;;;14.93;56.69;101787.66;5065525;28;20371;-53
2023/04/20 09:29:41;;;;;;;2.50;1.55;;;;;;;14.92;56.57;101784.09;5064793;28;20466;-53
2023/04/20 09:32:06;;;;;;;2.58;1.50;;;;;;;14.92;56.45;101785.94;5063288;28;20033;-53
2023/04/20 09:34:42;;;;;;;1.83;1.60;;;;;;;14.93;56.67;101785.00;5066356;28;20036;-52
2023/04/20 09:37:09;;;;;;;1.60;1.30;;;;;;;14.93;56.38;101779.63;5062833;28;20031;-53
2023/04/20 09:39:40;;;;;;;1.70;1.55;;;;;;;14.92;56.54;101773.38;5063618;28;20068;-52
2023/04/20 09:42:10;;;;;;;2.97;1.30;;;;;;;14.93;56.73;101782.31;5067077;28;20028;-53
2023/04/20 09:44:37;;;;;;;1.83;1.40;;;;;;;14.93;56.73;101779.63;5066361;28;20028;-53
2023/04/20 09:47:02;;;;;;;1.73;1.60;;;;;;;14.92;56.75;101778.75;5065156;28;20099;-51
2023/04/20 09:49:28;;;;;;;1.88;1.50;;;;;;;14.92;56.50;101778.75;5064410;28;20024;-53
2023/04/20 09:51:55;;;;;;;3.38;1.83;;;;;;;14.92;56.63;101776.06;5063830;28;20442;-52
2023/04/20 09:54:21;;;;;;;1.85;1.70;;;;;;;14.92;56.56;101783.25;5064669;28;20036;-53
2023/04/20 09:56:48;;;;;;;2.38;1.70;;;;;;;14.91;56.59;101771.69;5067156;28;20036;-52
2023/04/20 09:59:18;;;;;;;4.63;1.45;;;;;;;14.91;56.59;101766.31;5061682;28;20540;-53
2023/04/20 10:01:43;;;;;;;1.38;1.27;;;;;;;14.91;56.93;101757.38;5059870;28;20470;-53
2023/04/20 10:04:09;;;;;;;1.38;1.25;;;;;;;14.92;56.78;101751.06;5061420;28;20055;-53
2023/04/20 10:06:35;;;;;;;2.17;1.38;;;;;;;14.91;56.55;101760.06;5063220;28;20084;-53
2023/04/20 10:09:03;;;;;;;1.60;1.50;;;;;;;14.92;56.96;101756.44;5063423;28;20125;-53
2023/04/20 10:11:37;;;;;;;1.30;1.20;;;;;;;14.92;56.61;101759.13;5065563;28;20159;-53
2023/04/20 10:14:18;;;;;;;1.50;1.40;;;;;;;14.93;56.50;101756.34;5065851;28;20039;-52
2023/04/20 10:16:45;;;;;;;1.73;1.40;;;;;;;14.93;56.90;101758.19;5070036;28;20053;-52
2023/04/20 10:19:11;;;;;;;2.83;1.60;;;;;;;14.92;56.96;101757.28;5066165;28;20069;-52
2023/04/20 10:21:48;;;;;;;1.95;1.40;;;;;;;14.92;57.02;101753.75;5063746;28;20035;-52
2023/04/20 10:24:14;;;;;;;2.00;1.70;;;;;;;14.92;56.52;101751.06;5065770;28;20033;-53
2023/04/20 10:26:42;;;;;;;1.58;1.48;;;;;;;14.91;56.73;101758.28;5070305;28;20028;-53
2023/04/20 10:29:08;;;;;;;2.72;1.55;;;;;;;14.92;56.51;101753.75;5058144;28;20077;-50
2023/04/20 10:31:38;;;;;;;1.60;1.50;;;;;;;14.92;56.57;101749.25;5052427;28;20107;-53
2023/04/20 10:34:04;;;;;;;1.50;1.40;;;;;;;14.92;56.74;101751.06;5062339;28;20351;-53
2023/04/20 10:36:41;;;;;;;1.30;1.20;;;;;;;14.93;56.87;101747.44;5059481;28;20546;-51
2023/04/20 10:39:18;;;;;;;1.42;1.33;;;;;;;14.94;56.90;101730.38;5070247;28;20024;-51
2023/04/20 10:42:10;;;;;;;1.90;1.80;;;;;;;14.96;56.64;101733.81;5061535;28;20032;-52
2023/04/20 10:44:46;;;;;;;2.25;1.30;;;;;;;14.94;56.68;101723.19;5058318;28;20437;-53
2023/04/20 10:47:13;;;;;;;2.28;1.60;;;;;;;14.94;56.88;101735.75;5061999;28;20480;-52
2023/04/20 10:49:38;;;;;;;2.80;1.40;;;;;;;14.94;56.86;101727.69;5063338;28;20039;-53
2023/04/20 10:52:04;;;;;;;1.95;1.40;;;;;;;14.94;56.66;101730.38;5065340;28;20393;-53
2023/04/20 10:54:38;;;;;;;1.98;1.58;;;;;;;14.95;56.82;101721.38;5065617;28;20051;-53
2023/04/20 10:57:04;;;;;;;2.92;1.77;;;;;;;14.94;56.79;101715.13;5061235;28;20024;-52
2023/04/20 10:59:30;;;;;;;1.48;1.38;;;;;;;14.95;56.59;101716.03;5058646;28;20024;-52
2023/04/20 11:01:55;;;;;;;1.40;1.30;;;;;;;14.96;56.75;101720.41;5064789;28;20504;-53
2023/04/20 11:04:31;;;;;;;1.67;1.48;;;;;;;14.96;56.58;101723.94;5063724;28;20032;-53
2023/04/20 11:07:04;;;;;;;1.58;1.45;;;;;;;14.96;56.46;101721.25;5066994;28;20115;-53
2023/04/20 11:09:30;;;;;;;3.33;1.55;;;;;;;14.95;56.48;101714.19;5062381;28;20078;-53
2023/04/20 11:12:00;;;;;;;1.63;1.52;;;;;;;14.95;56.66;101716.88;5069761;28;20020;-53
2023/04/20 11:14:27;;;;;;;1.90;1.80;;;;;;;14.95;56.31;101719.56;5067922;28;20474;-53
2023/04/20 11:16:53;;;;;;;2.00;1.40;;;;;;;14.94;56.48;101712.47;5061433;28;20515;-53
2023/04/20 11:19:32;;;;;;;1.95;1.40;;;;;;;14.95;56.40;101713.34;5067574;28;20115;-53
2023/04/20 11:22:00;;;;;;;2.60;1.83;;;;;;;14.95;56.26;101698.09;5064404;28;20028;-53